Time;durP1;ratioP1;P1;durP2;ratioP2;P2;SDS_P1;SDS_P2;PMS_P1;PMS_P2;Temp;Humidity;BMP_temperature;BMP_pressure;BME280_temperature;BME280_humidity;BME280_pressure;Samples;Min_cycle;Max_cycle;Signal;HPM_P1;HPM_P2
2023/05/09 05:02:17;;;;;;;;;1.00;1.00;;;;;17.16;86.64;23107.97;5033801;23;45614;-81
2023/05/09 05:04:43;;;;;;;;;0.00;0.00;;;;;17.07;88.98;55766.03;4883168;28;46311;-84
2023/05/09 05:07:08;;;;;;;;;1.00;1.00;;;;;17.00;89.88;68306.28;4885008;28;51499;-78
2023/05/09 05:09:33;;;;;;;;;0.00;0.00;;;;;16.94;91.31;80518.00;4896457;29;45764;-79
2023/05/09 05:11:59;;;;;;;;;1.00;1.00;;;;;16.60;88.83;48126.28;4894199;28;46634;-82
2023/05/09 05:14:24;;;;;;;;;0.00;0.00;;;;;16.84;88.84;49035.91;4884052;28;46161;-83
2023/05/09 05:16:49;;;;;;;;;0.00;0.00;;;;;16.80;89.75;64690.78;4892295;28;45438;-82
2023/05/09 05:19:14;;;;;;;;;0.00;0.00;;;;;16.75;90.18;68013.00;4888833;29;45577;-81
2023/05/09 05:21:40;;;;;;;;;0.33;0.33;;;;;16.76;91.24;88466.50;4894779;28;45538;-79
2023/05/09 05:24:05;;;;;;;;;0.33;0.33;;;;;16.50;90.65;80911.56;4883973;28;45933;-86
2023/05/09 05:26:30;;;;;;;;;0.00;0.00;;;;;16.71;91.59;91892.28;4961379;28;45886;-80
2023/05/09 05:28:56;;;;;;;;;0.33;0.33;;;;;16.59;93.68;106720.06;4968797;28;45564;-83
2023/05/09 05:31:22;;;;;;;;;0.67;0.67;;;;;16.62;94.58;110784.50;4881584;28;45497;-85
2023/05/09 05:33:47;;;;;;;;;1.33;1.00;;;;;16.59;93.55;107240.19;4889795;29;46776;-89
2023/05/09 05:36:13;;;;;;;;;0.00;0.00;;;;;16.46;95.36;112135.34;4892438;28;45627;-83
2023/05/09 05:38:38;;;;;;;;;0.67;0.67;;;;;16.39;93.88;107188.31;4946054;28;45460;-80
2023/05/09 05:41:03;;;;;;;;;0.00;0.00;;;;;16.51;94.75;112834.75;4884192;28;45797;-82
2023/05/09 05:43:29;;;;;;;;;2.00;0.00;;;;;16.40;95.71;117652.38;4886374;28;46968;-84
2023/05/09 05:45:54;;;;;;;;;0.00;0.00;;;;;16.48;95.91;120434.84;4893181;29;45513;-86
2023/05/09 05:48:19;;;;;;;;;0.25;0.25;;;;;16.37;97.75;120413.28;4886665;28;45442;-85
2023/05/09 05:50:45;;;;;;;;;1.00;1.00;;;;;16.44;99.82;124928.44;4896794;28;45451;-83
2023/05/09 05:53:10;;;;;;;;;0.00;0.00;;;;;16.10;99.72;125549.53;4880681;29;48205;-88
2023/05/09 05:55:35;;;;;;;;;0.00;0.00;;;;;16.37;99.24;123874.56;4894862;29;46102;-86
2023/05/09 05:58:01;;;;;;;;;1.00;1.00;;;;;16.36;98.90;124219.78;4884506;28;45714;-86
2023/05/09 06:00:27;;;;;;;;;1.00;1.00;;;;;16.25;98.90;124543.81;4895337;28;45662;-86
2023/05/09 06:02:52;;;;;;;;;0.67;0.67;;;;;16.13;97.66;125557.06;4991537;28;45951;-86
2023/05/09 06:05:18;;;;;;;;;1.00;1.00;;;;;16.37;97.70;127685.38;4980831;28;45704;-87
2023/05/09 06:07:43;;;;;;;;;1.00;1.00;;;;;16.23;98.50;129390.03;4975540;28;46233;-86
2023/05/09 06:10:09;;;;;;;;;1.00;1.00;;;;;16.37;98.48;130112.28;4988370;28;45995;-86
2023/05/09 06:12:34;;;;;;;;;1.00;1.00;;;;;16.36;99.89;129763.25;4983206;28;46306;-85
2023/05/09 06:15:00;;;;;;;;;4.00;1.00;;;;;16.35;98.68;128722.00;4982765;28;45555;-85
2023/05/09 06:17:26;;;;;;;;;1.00;1.00;;;;;16.06;100.00;128659.47;4986613;28;45598;-85
2023/05/09 06:19:52;;;;;;;;;1.00;1.00;;;;;16.18;100.00;130071.22;4983339;28;45488;-87
2023/05/09 06:22:17;;;;;;;;;0.00;0.00;;;;;16.29;99.57;129055.47;4990087;28;53556;-84
2023/05/09 06:24:42;;;;;;;;;1.67;1.67;;;;;16.24;98.79;130084.53;4990498;28;45604;-85
2023/05/09 06:27:08;;;;;;;;;1.00;1.00;;;;;16.32;98.48;131488.47;4980992;28;45428;-87
2023/05/09 06:29:33;;;;;;;;;1.00;1.00;;;;;16.13;99.32;132141.78;4986248;28;45579;-89
2023/05/09 06:31:59;;;;;;;;;0.00;0.00;;;;;16.31;99.58;132874.00;4986886;28;46249;-86
2023/05/09 06:34:24;;;;;;;;;1.00;1.00;;;;;16.10;98.95;132481.84;4982050;28;54841;-83
2023/05/09 06:36:50;;;;;;;;;1.00;1.00;;;;;16.29;100.00;132869.47;4987415;28;45463;-86
2023/05/09 06:39:15;;;;;;;;;0.67;0.67;;;;;16.10;99.50;132481.84;4988067;28;45447;-88
2023/05/09 06:41:40;;;;;;;;;0.00;0.00;;;;;16.29;99.80;133910.56;4970346;28;47725;-88
2023/05/09 06:44:06;;;;;;;;;0.00;0.00;;;;;16.06;99.15;133860.38;4985672;28;45585;-87
2023/05/09 06:46:31;;;;;;;;;0.00;0.00;;;;;16.30;100.00;133912.88;4984078;28;45392;-83
2023/05/09 06:48:56;;;;;;;;;0.00;0.00;;;;;16.08;100.00;133863.78;4988919;28;46311;-87
2023/05/09 06:51:22;;;;;;;;;1.00;1.00;;;;;16.29;99.88;133217.59;4987263;28;46478;-86
2023/05/09 06:53:47;;;;;;;;;0.67;0.67;;;;;16.14;98.83;133531.66;4976052;28;45404;-89
2023/05/09 06:56:13;;;;;;;;;0.00;0.00;;;;;16.23;100.00;134593.31;4987704;28;45813;-85
2023/05/09 06:58:38;;;;;;;;;2.00;0.33;;;;;16.06;99.79;134206.16;4994626;28;45485;-85
2023/05/09 07:01:04;;;;;;;;;0.00;0.00;;;;;16.27;99.45;135294.50;4994041;28;46375;-86
2023/05/09 07:03:29;;;;;;;;;2.00;1.00;;;;;16.23;100.00;134246.22;4994741;28;45368;-83
2023/05/09 07:05:57;;;;;;;;;0.00;0.00;;;;;16.22;98.86;131468.34;4994076;28;45525;-86
2023/05/09 07:08:23;;;;;;;;;1.00;1.00;;;;;16.09;98.57;132825.34;4995503;28;45870;-85
2023/05/09 07:10:48;;;;;;;;;1.00;1.00;;;;;15.96;98.14;130716.72;4986802;28;46212;-88
2023/05/09 07:13:14;;;;;;;;;0.00;0.00;;;;;16.14;97.70;129716.78;4993457;28;45581;-88
2023/05/09 07:15:39;;;;;;;;;0.33;0.33;;;;;16.01;98.09;133156.31;4992972;28;45496;-87
2023/05/09 07:18:04;;;;;;;;;0.00;0.00;;;;;16.10;98.12;133869.47;4991971;28;45429;-88
2023/05/09 07:20:30;;;;;;;;;1.00;1.00;;;;;15.89;98.02;135556.16;4983216;28;45434;-90
2023/05/09 07:22:57;;;;;;;;;1.00;1.00;;;;;15.71;99.69;135863.78;4978368;28;45440;-89
2023/05/09 07:25:22;;;;;;;;;0.00;0.00;;;;;16.05;99.49;136634.53;4993317;28;45495;-90
2023/05/09 07:27:47;;;;;;;;;0.00;0.00;;;;;15.82;99.20;136236.25;4991980;28;45552;-89
2023/05/09 07:30:13;;;;;;;;;0.33;0.33;;;;;15.97;99.35;136964.22;4987557;28;47476;-91
2023/05/09 07:32:38;;;;;;;;;0.00;0.00;;;;;15.88;98.41;134859.94;4991399;28;45731;-90
2023/05/09 07:35:04;;;;;;;;;0.00;0.00;;;;;15.88;98.78;136596.13;4996936;28;45808;-90
2023/05/09 07:37:30;;;;;;;;;0.33;0.33;;;;;15.89;99.50;137987.00;4985247;28;45596;-92
2023/05/09 07:39:55;;;;;;;;;0.67;0.67;;;;;15.70;99.77;137943.47;4978127;28;46643;-88
2023/05/09 07:42:23;;;;;;;;;1.00;1.00;;;;;15.79;100.00;136923.34;4989822;28;45433;-86
2023/05/09 07:44:51;;;;;;;;;1.00;1.00;;;;;15.95;100.00;135918.25;4989276;28;45897;-92
2023/05/09 07:50:00;;;;;;;;;0.33;0.00;;;;;15.07;100.00;134679.41;4998389;28;45431;-93
2023/05/09 07:52:26;;;;;;;;;0.33;0.33;;;;;15.91;100.00;134866.84;4980111;28;45476;-93
2023/05/09 07:54:54;;;;;;;;;0.00;0.00;;;;;15.11;100.00;136073.66;4986372;28;45575;-90
2023/05/09 07:57:55;;;;;;;;;1.00;1.00;;;;;14.68;100.00;135629.78;4999606;28;45890;-93
2023/05/09 08:00:22;;;;;;;;;0.67;0.67;;;;;15.54;100.00;136866.09;4989940;28;46598;-94
2023/05/09 08:02:49;;;;;;;;;1.00;0.67;;;;;15.33;100.00;136470.31;4997040;28;45357;-92
2023/05/09 08:05:15;;;;;;;;;1.00;1.00;;;;;15.95;100.00;136265.31;4977564;28;45936;-93
2023/05/09 08:07:40;;;;;;;;;1.00;1.00;;;;;15.52;100.00;137207.19;4981994;28;45524;-94
2023/05/09 08:10:09;;;;;;;;;0.00;0.00;;;;;14.91;100.00;137069.16;4984229;28;45883;-92
2023/05/09 08:13:06;;;;;;;;;0.67;0.00;;;;;15.31;100.00;136812.41;4987909;28;45506;-96
2023/05/09 08:15:34;;;;;;;;;0.00;0.00;;;;;15.93;100.00;137300.88;4893683;29;45531;-95
2023/05/09 08:18:02;;;;;;;;;0.00;0.00;;;;;14.81;100.00;137392.28;4906954;28;45316;-95
2023/05/09 08:20:30;;;;;;;;;1.00;1.00;;;;;15.26;100.00;137147.50;4899331;29;47266;-89
2023/05/09 08:22:55;;;;;;;;;3.00;0.00;;;;;15.90;100.00;137295.03;4898765;29;45875;-92
2023/05/09 08:25:29;;;;;;;;;1.00;1.00;;;;;15.30;100.00;137851.72;4912770;28;45909;-95
2023/05/09 08:27:58;;;;;;;;;1.00;1.00;;;;;14.95;100.00;137423.94;4919189;28;45494;-93
2023/05/09 08:30:23;;;;;;;;;0.67;0.00;;;;;14.83;100.00;138090.16;4916477;28;48185;-91
2023/05/09 08:32:49;;;;;;;;;1.67;1.00;;;;;15.72;100.00;139682.88;4900240;28;45599;-93
2023/05/09 08:35:14;;;;;;;;;0.00;0.00;;;;;15.90;100.00;139031.13;4918372;28;45476;-90
2023/05/09 08:37:40;;;;;;;;;1.00;1.00;;;;;15.37;100.00;139948.94;4916421;28;47096;-92
2023/05/09 08:40:06;;;;;;;;;1.00;1.00;;;;;15.87;100.00;140413.31;4917319;28;46992;-86
2023/05/09 08:42:48;;;;;;;;;1.00;0.00;;;;;15.02;100.00;141601.31;4914089;28;45403;-96
2023/05/09 08:45:15;;;;;;;;;1.67;1.00;;;;;14.98;100.00;141594.09;4893641;29;45516;-91
2023/05/09 08:47:43;;;;;;;;;1.00;1.00;;;;;14.88;100.00;142610.84;4901593;29;45571;-95
2023/05/09 08:50:13;;;;;;;;;1.00;1.00;;;;;14.85;100.00;143296.44;4907283;29;47265;-95
2023/05/09 08:52:56;;;;;;;;;1.00;1.00;;;;;14.92;100.00;143313.53;4979512;28;45431;-96
2023/05/09 08:55:24;;;;;;;;;3.00;1.00;;;;;15.87;100.00;144235.19;5005572;28;45557;-96
2023/05/09 09:03:48;;;;;;;;;0.00;0.00;;;;;15.82;100.00;144920.78;4959334;28;45688;-90
2023/05/09 09:06:16;;;;;;;;;1.33;0.33;;;;;15.55;100.00;145202.91;4940872;28;45470;-91
2023/05/09 09:08:43;;;;;;;;;1.33;1.00;;;;;15.13;100.00;146142.44;4956185;28;45435;-92
2023/05/09 09:11:16;;;;;;;;;0.00;0.00;;;;;15.35;100.00;146891.25;4956429;28;46909;-91
2023/05/09 09:13:43;;;;;;;;;1.67;1.00;;;;;14.86;100.00;147118.41;4938990;28;45435;-91
2023/05/09 09:16:11;;;;;;;;;1.00;1.00;;;;;15.14;100.00;147187.44;4940407;28;45513;-89
2023/05/09 09:18:38;;;;;;;;;2.00;2.00;;;;;15.30;100.00;147575.28;4941735;28;45674;-90
2023/05/09 09:21:08;;;;;;;;;0.33;0.33;;;;;15.32;100.00;147580.31;4957489;28;48361;-90
2023/05/09 09:23:36;;;;;;;;;0.33;0.33;;;;;15.41;100.00;147949.47;4922062;28;45372;-92
2023/05/09 09:26:03;;;;;;;;;1.00;1.00;;;;;15.09;100.00;148217.59;4936029;28;45527;-92
2023/05/09 09:28:29;;;;;;;;;0.00;0.00;;;;;15.24;100.00;148603.28;4960954;28;45568;-93
2023/05/09 09:30:54;;;;;;;;;1.00;1.00;;;;;15.23;100.00;148948.44;4947381;28;47109;-92
2023/05/09 09:33:25;;;;;;;;;1.00;1.00;;;;;15.77;100.00;149083.16;4943604;28;46089;-94
2023/05/09 09:35:52;;;;;;;;;1.00;1.00;;;;;15.76;100.00;149776.81;4959922;28;45424;-91
2023/05/09 09:38:19;;;;;;;;;1.33;1.33;;;;;15.34;100.00;150714.59;4956682;28;46036;-92
2023/05/09 09:41:02;;;;;;;;;0.67;0.00;;;;;14.92;100.00;150610.50;4939782;28;48582;-89
2023/05/09 09:43:29;;;;;;;;;0.00;0.00;;;;;15.79;100.00;150827.72;4953430;28;45536;-88
2023/05/09 09:45:55;;;;;;;;;0.00;0.00;;;;;15.60;100.00;151476.41;4957492;28;46583;-91
2023/05/09 09:48:34;;;;;;;;;3.00;1.00;;;;;15.78;100.00;152219.56;4957011;28;45456;-92
2023/05/09 09:51:10;;;;;;;;;1.00;0.00;;;;;15.67;100.00;152189.66;4957546;28;47230;-92
2023/05/09 09:53:43;;;;;;;;;1.00;1.00;;;;;15.74;100.00;151860.88;4940651;28;45381;-93
2023/05/09 09:56:09;;;;;;;;;0.00;0.00;;;;;15.68;100.00;152541.81;4922434;28;45459;-90
2023/05/09 09:58:51;;;;;;;;;0.00;0.00;;;;;14.68;100.00;152636.16;4926873;28;45418;-92
2023/05/09 10:01:16;;;;;;;;;0.00;0.00;;;;;14.84;100.00;152328.66;4950555;28;45842;-90
2023/05/09 10:03:46;;;;;;;;;2.00;0.00;;;;;15.43;100.00;152478.16;4956632;28;45544;-91
2023/05/09 10:06:15;;;;;;;;;0.00;0.00;;;;;15.77;100.00;152913.66;4955676;28;45663;-92
2023/05/09 10:08:45;;;;;;;;;0.00;0.00;;;;;15.60;100.00;152870.59;4958051;28;45837;-89
2023/05/09 10:12:18;;;;;;;;;0.00;0.00;;;;;15.78;100.00;153264.69;4938824;28;48231;-96
2023/05/09 10:14:44;;;;;;;;;0.00;0.00;;;;;15.80;100.00;153269.94;4910719;28;45748;-87
2023/05/09 10:17:13;;;;;;;;;0.00;0.00;;;;;15.80;100.00;153269.94;4944958;28;44869;-88
2023/05/09 10:19:44;;;;;;;;;0.00;0.00;;;;;15.74;100.00;153254.22;4925723;28;45929;-94
2023/05/09 10:22:13;;;;;;;;;1.67;0.67;;;;;15.68;100.00;153238.50;4942061;28;47189;-94
2023/05/09 10:24:46;;;;;;;;;0.33;0.33;;;;;15.85;100.00;153281.69;4941292;28;45573;-95
2023/05/09 10:27:13;;;;;;;;;0.00;0.00;;;;;15.22;100.00;153121.00;4927092;28;45381;-94
2023/05/09 10:30:29;;;;;;;;;0.00;0.00;;;;;15.16;100.00;152758.56;4939374;28;45735;-95
2023/05/09 10:33:06;;;;;;;;;3.00;0.00;;;;;15.58;100.00;152515.84;4922976;28;47345;-94
2023/05/09 10:35:35;;;;;;;;;0.00;0.00;;;;;15.28;100.00;152078.78;4959850;28;45378;-94
2023/05/09 10:38:03;;;;;;;;;1.00;1.00;;;;;15.27;100.00;152367.16;4941527;28;45369;-93
2023/05/09 10:40:30;;;;;;;;;0.00;0.00;;;;;15.87;100.00;151852.38;4941170;28;45579;-93
2023/05/09 10:42:56;;;;;;;;;0.25;0.25;;;;;15.88;100.00;150976.03;4937980;28;48463;-94
2023/05/09 10:45:22;;;;;;;;;1.00;1.00;;;;;14.95;100.00;149981.25;4928854;28;45404;-94
2023/05/09 10:47:49;;;;;;;;;0.00;0.00;;;;;15.93;100.00;149136.16;4936356;28;46668;-93
2023/05/09 10:50:16;;;;;;;;;0.00;0.00;;;;;15.80;100.00;147122.41;4940853;28;45325;-89
2023/05/09 10:53:13;;;;;;;;;0.00;0.00;;;;;16.02;100.00;145720.63;4936146;28;48475;-93
2023/05/09 10:55:48;;;;;;;;;0.00;0.00;;;;;16.04;100.00;143880.31;4921988;28;45440;-92
2023/05/09 10:58:18;;;;;;;;;0.00;0.00;;;;;15.86;100.00;142308.44;4928039;28;45447;-92
2023/05/09 11:00:45;;;;;;;;;0.00;0.00;;;;;15.59;100.00;140514.16;4947399;28;45535;-91
2023/05/09 11:03:11;;;;;;;;;0.00;0.00;;;;;16.00;100.00;139265.31;4937710;28;46679;-92
2023/05/09 11:05:40;;;;;;;;;0.00;0.00;;;;;15.92;100.00;138760.63;4942864;28;45456;-92
2023/05/09 11:08:17;;;;;;;;;0.00;0.00;;;;;16.16;100.00;137056.25;4961101;28;45456;-92
2023/05/09 11:10:43;;;;;;;;;0.00;0.00;;;;;15.71;100.00;135935.78;4960938;28;45569;-92
2023/05/09 11:13:08;;;;;;;;;0.00;0.00;;;;;16.07;100.00;131312.78;4937869;28;47179;-93
2023/05/09 11:15:35;;;;;;;;;0.00;0.00;;;;;16.12;100.00;130362.34;4941738;28;45655;-89
2023/05/09 11:18:09;;;;;;;;;0.00;0.00;;;;;15.79;100.00;129422.34;4941861;28;45626;-93
2023/05/09 11:20:41;;;;;;;;;0.00;0.00;;;;;16.07;100.00;128335.72;4941066;28;45500;-92
2023/05/09 11:23:09;;;;;;;;;0.00;0.00;;;;;16.29;100.00;127221.22;4939749;28;47305;-90
2023/05/09 11:25:34;;;;;;;;;1.00;1.00;;;;;15.68;100.00;126895.78;4938871;28;45920;-92
2023/05/09 11:28:01;;;;;;;;;1.67;1.67;;;;;15.73;100.00;125983.44;4942968;28;45486;-92
2023/05/09 11:30:42;;;;;;;;;0.00;0.00;;;;;16.35;100.00;125128.44;4941679;28;45845;-91
2023/05/09 11:33:26;;;;;;;;;0.00;0.00;;;;;15.96;100.00;124090.13;4959266;28;45677;-89
2023/05/09 11:36:37;;;;;;;;;0.00;0.00;;;;;16.40;100.00;122234.66;4948280;28;45468;-92
2023/05/09 11:39:05;;;;;;;;;0.00;0.00;;;;;16.14;100.00;121604.72;4955201;28;45345;-93
2023/05/09 11:41:38;;;;;;;;;0.00;0.00;;;;;16.09;100.00;121072.81;4968532;28;45431;-92
2023/05/09 11:44:12;;;;;;;;;0.00;0.00;;;;;16.08;100.00;121428.44;4960177;28;45663;-93
2023/05/09 11:46:37;;;;;;;;;1.25;0.75;;;;;16.22;100.00;121219.63;4944537;28;45516;-93
2023/05/09 11:49:05;;;;;;;;;0.00;0.00;;;;;15.40;100.00;120456.59;4944249;28;45446;-94
2023/05/09 11:51:35;;;;;;;;;0.00;0.00;;;;;16.03;100.00;120532.88;4960242;28;45461;-93
2023/05/09 11:54:00;;;;;;;;;0.00;0.00;;;;;15.48;100.00;119620.22;4945375;28;46772;-93
2023/05/09 11:56:26;;;;;;;;;0.00;0.00;;;;;16.35;100.00;120156.13;4943314;28;45400;-93
2023/05/09 11:58:51;;;;;;;;;0.00;0.00;;;;;16.36;100.00;120108.50;4958815;28;45384;-91
2023/05/09 12:01:17;;;;;;;;;0.00;0.00;;;;;15.12;100.00;119480.25;4943664;28;45576;-96
2023/05/09 12:03:43;;;;;;;;;0.00;0.00;;;;;16.31;100.00;119482.13;4941504;28;47466;-91
2023/05/09 12:06:14;;;;;;;;;0.25;0.00;;;;;16.68;100.00;118599.53;4958260;28;45472;-94
2023/05/09 12:08:42;;;;;;;;;0.00;0.00;;;;;16.58;100.00;118465.81;4956134;28;45873;-94
2023/05/09 12:11:08;;;;;;;;;0.00;0.00;;;;;15.94;100.00;118204.47;4951134;28;45679;-93
2023/05/09 12:13:34;;;;;;;;;0.00;0.00;;;;;15.80;100.00;118297.03;4949096;28;46627;-91
2023/05/09 12:16:01;;;;;;;;;0.00;0.00;;;;;16.49;100.00;118082.81;4931507;28;45516;-93
2023/05/09 12:18:29;;;;;;;;;0.00;0.00;;;;;15.83;100.00;118450.53;4923944;28;45418;-92
2023/05/09 12:20:54;;;;;;;;;0.00;0.00;;;;;16.18;100.00;117702.00;4947918;28;45550;-91
2023/05/09 12:23:19;;;;;;;;;1.00;0.00;;;;;16.78;100.00;117467.19;4945229;28;46960;-94
2023/05/09 12:25:55;;;;;;;;;0.00;0.00;;;;;16.80;100.00;117115.47;4942307;28;45759;-91
2023/05/09 12:28:23;;;;;;;;;0.00;0.00;;;;;16.82;100.00;116849.19;4957899;28;45415;-87
2023/05/09 12:30:50;;;;;;;;;0.25;0.25;;;;;16.86;100.00;117113.94;4958086;28;45775;-90
2023/05/09 12:33:16;;;;;;;;;0.00;0.00;;;;;16.87;100.00;116545.66;4939891;28;47241;-93
2023/05/09 12:36:11;;;;;;;;;0.00;0.00;;;;;16.91;100.00;116246.22;4941824;28;45606;-92
2023/05/09 12:38:37;;;;;;;;;0.00;0.00;;;;;16.40;100.00;116439.66;4943947;22;45464;-95
2023/05/09 12:41:05;;;;;;;;;0.00;0.00;;;;;16.37;100.00;116306.78;4959064;28;45816;-93
2023/05/09 12:43:36;;;;;;;;;2.00;0.00;;;;;16.48;100.00;116304.28;4958499;28;46627;-94
2023/05/09 12:46:02;;;;;;;;;1.00;1.00;;;;;16.40;100.00;116326.25;4941444;28;45508;-94
2023/05/09 12:48:32;;;;;;;;;1.00;0.00;;;;;16.62;100.00;116161.94;4958801;28;45567;-93
2023/05/09 12:51:01;;;;;;;;;1.00;0.00;;;;;16.75;100.00;115748.06;4957415;28;45483;-94
2023/05/09 12:53:37;;;;;;;;;1.00;1.00;;;;;17.03;100.00;115753.75;4977352;28;47371;-95
2023/05/09 12:56:04;;;;;;;;;0.00;0.00;;;;;17.08;100.00;115401.44;4977249;28;45446;-95
2023/05/09 12:58:36;;;;;;;;;1.33;0.00;;;;;16.78;100.00;115864.72;4978308;28;45449;-94
2023/05/09 13:01:04;;;;;;;;;0.00;0.00;;;;;16.50;100.00;115497.13;4976137;28;45460;-96
2023/05/09 13:03:36;;;;;;;;;0.25;0.25;;;;;16.86;100.00;115234.84;4960853;28;48117;-95
2023/05/09 13:06:04;;;;;;;;;2.00;1.00;;;;;16.66;100.00;115396.31;4976770;28;45421;-95
2023/05/09 13:08:30;;;;;;;;;1.00;1.00;;;;;17.09;100.00;115377.38;4961113;28;45445;-94
2023/05/09 13:10:59;;;;;;;;;0.00;0.00;;;;;16.28;100.00;115589.72;4968373;28;45314;-95
2023/05/09 13:13:25;;;;;;;;;1.00;1.00;;;;;17.03;100.00;116283.53;4973020;28;47279;-93
2023/05/09 13:16:16;;;;;;;;;0.50;0.50;;;;;17.08;100.00;115845.72;4978230;28;45474;-96
2023/05/09 13:18:42;;;;;;;;;1.00;0.00;;;;;16.51;100.00;116523.66;4935913;28;45525;-93
2023/05/09 13:21:07;;;;;;;;;0.00;0.00;;;;;17.28;100.00;116847.00;4919613;28;45533;-93
2023/05/09 13:23:33;;;;;;;;;0.50;0.50;;;;;17.24;100.00;117374.50;4917971;28;48119;-94
2023/05/09 13:25:58;;;;;;;;;0.67;0.67;;;;;17.00;100.00;117296.75;4920823;28;45708;-95
2023/05/09 13:28:23;;;;;;;;;0.00;0.00;;;;;17.01;100.00;117904.41;4917761;28;45490;-95
2023/05/09 13:30:51;;;;;;;;;0.00;0.00;;;;;17.11;100.00;117965.09;4936993;28;45628;-94
2023/05/09 13:33:17;;;;;;;;;0.00;0.00;;;;;17.67;100.00;118369.84;4920665;28;47113;-94
2023/05/09 13:35:43;;;;;;;;;0.25;0.25;;;;;17.11;100.00;118727.84;4935967;28;45624;-94
2023/05/09 13:38:08;;;;;;;;;0.00;0.00;;;;;17.18;100.00;118590.50;4935015;28;45848;-94
2023/05/09 13:45:43;;;;;;;;;0.00;0.00;;;;;17.51;100.00;118917.81;5013591;28;45478;-94
2023/05/09 13:48:10;;;;;;;;;2.00;0.00;;;;;17.21;100.00;118864.47;5017821;28;45358;-94
2023/05/09 13:50:35;;;;;;;;;0.00;0.00;;;;;16.97;100.00;118524.72;5018213;28;45502;-93
2023/05/09 13:53:02;;;;;;;;;2.00;1.00;;;;;17.27;100.00;119435.75;4999967;28;47131;-93
2023/05/09 13:55:28;;;;;;;;;2.00;0.00;;;;;17.58;100.00;118646.75;4999293;28;45823;-93
2023/05/09 13:58:09;;;;;;;;;0.25;0.25;;;;;15.91;100.00;117690.94;5028275;28;45380;-96
2023/05/09 14:00:34;;;;;;;;;3.00;1.00;;;;;16.08;100.00;118218.22;5022300;28;45557;-96
2023/05/09 14:03:03;;;;;;;;;0.33;0.33;;;;;17.36;100.00;117151.38;5019153;28;47391;-90
2023/05/09 14:05:32;;;;;;;;;1.33;1.33;;;;;17.68;100.00;116950.81;5017776;28;45384;-94
2023/05/09 14:07:57;;;;;;;;;0.50;0.50;;;;;17.44;100.00;116723.69;4998781;28;45723;-89
2023/05/09 14:10:24;;;;;;;;;2.00;1.00;;;;;17.47;100.00;116563.66;5015859;28;45443;-91
2023/05/09 14:12:51;;;;;;;;;1.33;1.33;;;;;17.11;100.00;116137.19;4998378;28;48257;-92
2023/05/09 14:15:16;;;;;;;;;1.00;1.00;;;;;16.79;100.00;116082.91;4997591;28;45331;-89
2023/05/09 14:17:42;;;;;;;;;1.33;1.33;;;;;17.38;100.00;116488.94;5015856;28;45823;-89
2023/05/09 14:20:08;;;;;;;;;1.00;1.00;;;;;18.02;100.00;116476.09;5010794;28;45702;-93
2023/05/09 14:22:33;;;;;;;;;1.67;1.00;;;;;17.22;100.00;116937.78;5008491;28;45510;-90
2023/05/09 14:24:59;;;;;;;;;1.00;1.00;;;;;17.37;100.00;117340.03;5016985;28;45506;-96
2023/05/09 14:27:25;;;;;;;;;1.33;1.00;;;;;17.74;100.00;117431.03;4998703;28;45341;-93
2023/05/09 14:29:50;;;;;;;;;2.00;2.00;;;;;17.59;100.00;118080.34;4997915;28;45883;-90
2023/05/09 14:32:16;;;;;;;;;1.00;1.00;;;;;17.43;100.00;118563.31;5000177;28;46262;-95
2023/05/09 14:34:41;;;;;;;;;3.00;2.00;;;;;17.91;100.00;118555.44;4999188;28;45894;-93
2023/05/09 14:37:12;;;;;;;;;2.00;2.00;;;;;17.22;100.00;118619.25;5052089;22;46301;-93
2023/05/09 14:39:48;;;;;;;;;5.00;5.00;;;;;17.36;100.00;119106.63;4996122;28;45594;-93
2023/05/09 14:42:17;;;;;;;;;2.00;2.00;;;;;17.45;100.00;119263.97;4994463;28;46503;-93
2023/05/09 14:44:43;;;;;;;;;2.00;2.00;;;;;18.01;100.00;119633.97;4995482;28;45389;-91
2023/05/09 14:47:09;;;;;;;;;5.00;5.00;;;;;18.47;100.00;120502.34;4990541;28;45351;-91
2023/05/09 14:49:40;;;;;;;;;3.00;3.00;;;;;17.99;100.00;120132.19;4996559;28;45625;-91
2023/05/09 14:52:05;;;;;;;;;3.00;3.00;;;;;18.27;100.00;121020.88;4987523;28;46247;-93
2023/05/09 14:54:37;;;;;;;;;5.00;4.00;;;;;18.06;100.00;120576.41;4996593;28;45622;-95
2023/05/09 14:57:06;;;;;;;;;4.00;4.00;;;;;18.24;100.00;121736.00;4994299;28;45679;-90
2023/05/09 14:59:32;;;;;;;;;3.33;3.33;;;;;18.71;100.00;121964.41;4992630;28;45612;-90
2023/05/09 15:01:57;;;;;;;;;5.00;3.00;;;;;18.15;100.00;121877.34;4993479;28;46258;-93
2023/05/09 15:04:29;;;;;;;;;4.00;4.00;;;;;17.87;100.00;122520.63;4977655;28;45510;-91
2023/05/09 15:06:54;;;;;;;;;6.00;4.33;;;;;17.85;100.00;122867.81;4995550;28;45493;-92
2023/05/09 15:09:21;;;;;;;;;4.00;4.00;;;;;18.67;100.00;123025.53;4995699;28;45380;-92
2023/05/09 15:11:46;;;;;;;;;4.00;4.00;;;;;18.27;100.00;123360.63;4993220;28;45383;-91
2023/05/09 15:14:15;;;;;;;;;4.33;3.33;;;;;17.99;100.00;123205.22;4997352;28;45439;-94
2023/05/09 15:16:40;;;;;;;;;5.33;5.00;;;;;18.28;100.00;123324.72;4995161;28;45518;-92
2023/05/09 15:19:07;;;;;;;;;3.00;2.00;;;;;18.57;100.00;122692.47;4994586;28;45809;-90
2023/05/09 15:21:33;;;;;;;;;4.00;4.00;;;;;17.90;100.00;122604.47;4976838;28;47560;-91
2023/05/09 15:24:02;;;;;;;;;6.67;6.67;;;;;18.65;100.00;122520.84;4993207;28;45623;-89
2023/05/09 15:26:30;;;;;;;;;6.00;6.00;;;;;18.51;100.00;122308.16;4990235;28;45808;-88
2023/05/09 15:29:25;;;;;;;;;7.00;4.00;;;;;18.69;100.00;122356.50;4987220;28;45669;-88
2023/05/09 15:31:54;;;;;;;;;6.33;4.33;;;;;18.02;100.00;122891.50;4992888;28;45479;-87
2023/05/09 15:34:21;;;;;;;;;5.00;5.00;;;;;18.40;100.00;122328.66;4993115;28;45561;-86
2023/05/09 15:36:47;;;;;;;;;5.33;5.00;;;;;18.05;100.00;122572.38;4994585;28;45398;-89
2023/05/09 15:39:12;;;;;;;;;1.33;1.33;;;;;18.07;100.00;122861.28;4994469;28;45560;-87
2023/05/09 15:41:37;;;;;;;;;4.00;3.67;;;;;18.07;100.00;122020.69;4979095;28;47293;-87
2023/05/09 15:44:03;;;;;;;;;4.00;4.00;;;;;18.59;100.00;122025.25;4997582;28;45434;-86
2023/05/09 15:46:28;;;;;;;;;5.00;5.00;;;;;18.42;100.00;122297.56;4997018;28;45640;-86
2023/05/09 15:49:06;;;;;;;;;4.33;3.00;;;;;18.19;100.00;122595.13;4998531;28;45469;-84
2023/05/09 15:51:31;;;;;;;;;4.00;3.67;;;;;18.09;100.00;122607.84;4994049;28;46072;-86
2023/05/09 15:54:03;;;;;;;;;4.00;4.00;;;;;17.69;100.00;121978.97;4979906;28;45573;-86
2023/05/09 15:56:31;;;;;;;;;4.00;4.00;;;;;18.59;100.00;121722.41;4998380;28;45395;-88
2023/05/09 15:58:57;;;;;;;;;3.67;2.00;;;;;18.20;100.00;121832.44;4993292;28;45530;-94
2023/05/09 16:01:22;;;;;;;;;3.33;3.33;;;;;18.55;100.00;121638.13;4997927;28;46960;-85
2023/05/09 16:03:47;;;;;;;;;5.00;4.00;;;;;18.30;100.00;121553.16;5013802;28;45486;-86
2023/05/09 16:06:13;;;;;;;;;6.33;6.33;;;;;18.40;100.00;121381.91;4991886;28;46521;-88
2023/05/09 16:08:45;;;;;;;;;3.33;3.33;;;;;17.89;100.00;121504.56;4978143;28;45872;-84
2023/05/09 16:11:16;;;;;;;;;6.00;6.00;;;;;18.18;100.00;121240.91;4996216;28;46830;-90
2023/05/09 16:13:45;;;;;;;;;5.00;4.00;;;;;17.98;100.00;120207.69;4992614;28;45752;-85
2023/05/09 16:16:11;;;;;;;;;3.00;3.00;;;;;17.77;100.00;120396.97;4995896;28;45502;-85
2023/05/09 16:18:36;;;;;;;;;4.67;4.00;;;;;18.17;100.00;119750.59;4998455;28;45502;-86
2023/05/09 16:21:01;;;;;;;;;5.67;3.00;;;;;18.46;100.00;119515.91;4999281;28;46260;-89
2023/05/09 16:23:27;;;;;;;;;4.00;4.00;;;;;18.35;100.00;119250.56;4998688;28;45452;-86
2023/05/09 16:25:52;;;;;;;;;4.33;4.33;;;;;18.47;100.00;119051.59;4999877;28;45344;-86
2023/05/09 16:28:22;;;;;;;;;5.33;4.67;;;;;18.45;100.00;118976.00;4986510;28;46607;-83
2023/05/09 16:30:47;;;;;;;;;5.00;4.00;;;;;18.41;100.00;118767.34;4994941;28;45530;-84
2023/05/09 16:33:12;;;;;;;;;4.33;3.00;;;;;18.37;100.00;118515.28;4996038;28;45629;-83
2023/05/09 16:35:38;;;;;;;;;4.00;4.00;;;;;18.37;100.00;118429.56;4995184;28;45439;-84
2023/05/09 16:38:04;;;;;;;;;4.00;4.00;;;;;18.31;100.00;118201.69;4996272;28;45597;-85
2023/05/09 16:40:29;;;;;;;;;3.00;3.00;;;;;18.26;100.00;117676.81;4993641;28;47600;-83